Bodensee (Kressbronn): 6,7°C  -  Teich der Wetterzentrale Bad Schussenried: 5,6°C |  Schneehöhe Kreuzthal-Steinberg (930 m ü. NN): 8 cm   
01.04.2020Höhe
ü. NN
ZeitTemperatur (°C)Nieder-
schlag
Luft-
feuchte
Luft-
druck
Wind
StationaktuellMinimumMaximumaktuellMaximum
Aldingen654 m05:51-2,7-3,2 (07:35)-0,3 (16:02)0,0 l/m²73%1023,50,0 km/h (0 Bft) O-SO29,6 km/h (5 Bft) W (14:48)
Allmendingen541 m05:50-6,2-6,2 (07:35)-2,1 (15:10)0,0 l/m²87%1023,41,6 km/h (1 Bft) NO35,4 km/h (5 Bft) O (15:35)
Altshausen574 m05:50-3,6-3,9 (05:14)-1,1 (00:16)0,0 l/m²66%1021,14,8 km/h (1 Bft) N8,0 km/h (2 Bft) N-NO (01:07)
Amstetten-Reutti663 m05:50-4,5-4,5 (05:50)-1,5 (16:55)0,0 l/m²86%1023,03,2 km/h (1 Bft) NO48,3 km/h (6 Bft) W (15:55)
Amtzell-Grenis677 m05:50-3,8-3,8 (05:45)-1,4 (00:00)0,0 l/m²62%1022,96,4 km/h (2 Bft) W-SW6,4 km/h (2 Bft) W-SW (00:00)
Aulendorf570 m05:50-2,7-2,7 (05:47)-0,5 (00:00)0,0 l/m²71%1021,96,4 km/h (2 Bft) N-NO14,5 km/h (3 Bft) O-NO (05:13)
Bad Krozingen233 m05:50-1,8-1,8 (05:50)3,7 (16:05)0,0 l/m²77%1023,23,5 km/h (1 Bft) W-SW38,1 km/h (5 Bft) N (17:05)
Bad Saulgau595 m05:50-4,8-4,8 (06:45)-1,9 (15:00)0,0 l/m²86%1021,80,0 km/h (0 Bft) S-SO25,7 km/h (4 Bft) S (11:35)
Bad Saulgau, Mannsgrab588 m05:48-5,4-6,1 (05:34)-1,7 (00:17)0,0 l/m²88%1024,30,0 km/h (0 Bft) NW0,0 km/h (0 Bft) N (00:00)
Bad Saulgau-Lampertsweiler627 m05:50-4,4-4,4 (05:50)0,2 (00:00)0,0 l/m²81%1024,98,0 km/h (2 Bft) N-NW22,5 km/h (4 Bft) N-NW (01:15)
Bad Schussenried572 m05:50-3,9-3,9 (05:50)-1,1 (00:00)0,0 l/m²87%1021,30,0 km/h (0 Bft) NO9,7 km/h (2 Bft) NO (03:15)
Bergatreute615 m01:45-0,7-0,7 (00:45)0,0 (00:00)0,0 l/m²77%1023,512,9 km/h (3 Bft) NO16,1 km/h (3 Bft) O-NO (01:40)
Biberach (Riss), Boehringer533 m05:50-3,9-4,0 (05:40)-1,1 (00:30)0,0 l/m²89%1022,14,7 km/h (1 Bft) N11,9 km/h (3 Bft) N (03:00)
Biberach (Riss), Realschule553 m05:50-3,8-3,8 (05:25)-0,3 (00:00)0,0 l/m²87%1023,98,0 km/h (2 Bft) N11,3 km/h (2 Bft) N-NO (03:35)
Burgrieden523 m05:50-3,7-3,7 (05:35)-0,4 (00:00)0,0 l/m²81%1022,90,0 km/h (0 Bft) NO4,8 km/h (1 Bft) O-NO (02:50)
Burgrieden-Hochstetten510 m05:45-4,3-4,3 (06:50)-0,9 (15:40)0,0 l/m²88%1023,43,2 km/h (1 Bft) N-NO25,7 km/h (4 Bft) NO (12:55)
Ebersbach579 m05:50-3,7-3,7 (05:50)-0,1 (00:00)0,0 l/m²84%1023,38,0 km/h (2 Bft) N16,1 km/h (3 Bft) NO (01:25)
Ebersbach-Boos605 m05:50-4,1-4,1 (05:45)-0,1 (00:00)0,0 l/m²87%1023,10,0 km/h (0 Bft) N-NO22,5 km/h (4 Bft) O (01:00)
Ebersbach-Menzenweiler661 m05:50-3,4-3,5 (05:50)-0,6 (00:00)0,0 l/m²86%1023,017,7 km/h (3 Bft) NO24,1 km/h (4 Bft) O-NO (01:05)
Ehingen535 m01:10-2,5-2,5 (01:10)-1,3 (00:05)0,0 l/m²70%1025,40,0 km/h (0 Bft) N-NO5,0 km/h (1 Bft) N-NO (00:15)
Erlenmoos645 m05:50-3,1-3,1 (05:45)-0,9 (00:00)0,0 l/m²86%1022,84,8 km/h (1 Bft) NO12,9 km/h (3 Bft) O-NO (01:35)
Ertingen569 m05:50-3,3-3,3 (05:40)-0,6 (00:00)0,0 l/m²84%1022,912,9 km/h (3 Bft) N16,1 km/h (3 Bft) N-NO (04:10)
Friedrichshafen405 m05:50-1,4-1,4 (06:45)0,9 (13:30)0,0 l/m²77%1022,78,0 km/h (2 Bft) NO27,4 km/h (4 Bft) NO (15:10)
Günzburg443 m05:50-4,7-4,7 (05:50)-1,1 (00:00)0,0 l/m²87%1020,90,0 km/h (0 Bft) NO0,0 km/h (0 Bft) NO (00:00)
Hochdorf-Appendorf537 m05:50-5,1-5,4 (05:45)-1,7 (00:15)0,0 l/m²67%1022,68,0 km/h (2 Bft) N-NO14,5 km/h (3 Bft) N-NW (03:20)
Höchsten802 m05:50-3,4-3,4 (05:35)-1,4 (00:00)0,0 l/m²78%1020,520,9 km/h (4 Bft) O-NO25,7 km/h (4 Bft) NO (02:45)
Horgenzell618 m05:50-1,9-1,9 (03:45)-0,6 (00:05)0,0 l/m²76%1020,24,8 km/h (1 Bft) N-NO19,3 km/h (3 Bft) N-NO (00:50)
Hoßkirch632 m05:50-6,2-6,2 (05:45)-1,0 (00:15)0,0 l/m²86%1021,83,2 km/h (1 Bft) NO14,5 km/h (3 Bft) O-NO (00:20)
Isny, Am Dreifingerbach695 m05:50-4,2-4,4 (05:00)0,1 (01:00)0,0 l/m²82%1021,60,0 km/h (0 Bft) W14,5 km/h (3 Bft) O-NO (01:05)
Isny, Weidachweg706 m05:50-3,6-3,8 (05:45)0,3 (00:25)0,0 l/m²74%1023,80,0 km/h (0 Bft) W12,9 km/h (3 Bft) W (00:10)
Kappel-Grafenhausen163 m05:45-1,1-1,1 (06:55)3,3 (14:55)0,0 l/m²76%1021,311,3 km/h (2 Bft) N-NO30,6 km/h (5 Bft) N-NO (16:55)
Kißlegg-Staibshof709 m05:50-3,0-3,0 (05:50)-0,9 (00:00)0,0 l/m²81%1022,66,4 km/h (2 Bft) NO14,5 km/h (3 Bft) O (01:50)
Kressbronn398 m05:50-1,7-1,7 (05:44)1,4 (00:00)0,0 l/m²74%1021,40,0 km/h (0 Bft) NO22,5 km/h (4 Bft) NO (00:54)
Kreuzthal-Steinberg-Alpe930 m05:40-4,1-4,8 (04:00)-2,5 (00:00)0,0 l/m²87%1023,03,6 km/h (1 Bft) O-NO22,0 km/h (4 Bft) W-NW (00:10)
Kreuzthal-Steinberggipfel1040 m05:40-3,5-4,0 (02:20)-3,1 (00:10)-75%1023,017,3 km/h (3 Bft) O-NO37,1 km/h (5 Bft) O-SO (00:10)
Kristberg im Montafon (AT)1425 m05:50-6,5-6,6 (04:51)-5,3 (00:40)0,0 l/m²61%1026,30,0 km/h (0 Bft) O-NO10,1 km/h (2 Bft) NO (01:47)
Laupheim500 m05:50-3,4-3,4 (05:30)0,0 (00:00)0,0 l/m²82%1022,44,8 km/h (1 Bft) NO9,7 km/h (2 Bft) O-SO (00:20)
Leutkirch-Heggelbach670 m05:50-4,6-4,6 (05:40)-2,6 (00:30)0,0 l/m²87%1021,90,0 km/h (0 Bft) N8,0 km/h (2 Bft) N-NO (03:30)
Lindau-Insel420 m05:50-1,1-1,1 (07:25)1,8 (14:55)0,0 l/m²72%1021,80,0 km/h (0 Bft) O-NO29,0 km/h (5 Bft) NO (17:05)
Lindau-Stadt412 m05:50-2,0-2,0 (07:25)1,2 (14:55)0,0 l/m²76%1021,93,2 km/h (1 Bft) NO33,8 km/h (5 Bft) N-NO (15:40)
Maierhöfen im Allgäu733 m05:50-3,4-3,4 (05:50)-1,2 (01:35)0,0 l/m²75%1022,03,2 km/h (1 Bft) O-NO25,7 km/h (4 Bft) O-SO (02:05)
Maselheim543 m05:50-4,8-4,8 (06:40)-2,3 (13:20)0,0 l/m²85%1023,33,2 km/h (1 Bft) NW24,1 km/h (4 Bft) O-NO (15:20)
Maselheim-Sulmingen548 m05:50-4,7-4,9 (06:40)-2,2 (15:15)0,0 l/m²89%1024,53,2 km/h (1 Bft) N20,9 km/h (4 Bft) N-NO (12:15)
Mietingen-Baltringen528 m05:50-4,7-4,7 (05:40)-1,3 (00:45)0,0 l/m²86%1024,80,0 km/h (0 Bft) O-NO4,8 km/h (1 Bft) N-NO (01:20)
Mindelheim-Apfeltrach620 m05:51-5,4-5,4 (05:47)-2,7 (00:00)0,0 l/m²88%1024,00,0 km/h (0 Bft) NO0,0 km/h (0 Bft) O-NO (00:00)
Mittelbiberach577 m05:51-4,1-4,3 (04:39)-1,0 (00:16)0,0 l/m²83%1024,06,4 km/h (2 Bft) N11,2 km/h (2 Bft) NO (01:21)
Neresheim552 m05:00-6,2-6,2 (05:00)-2,0 (00:00)0,0 l/m²88%1022,10,0 km/h (0 Bft) O4,0 km/h (1 Bft) NO (01:00)
Neukirch570 m05:50-2,8-2,8 (06:05)-0,9 (14:35)0,0 l/m²80%1022,16,4 km/h (2 Bft) N-NO37,0 km/h (5 Bft) N-NO (11:55)
Ochsenhausen, Birkenstraße613 m05:50-5,1-5,1 (07:10)-2,2 (12:50)0,0 l/m²81%1023,40,0 km/h (0 Bft) NO3,2 km/h (1 Bft) S-SW (07:05)
Ochsenhausen, Unt. Wiesen575 m05:50-5,3-5,5 (05:35)-2,4 (00:00)0,0 l/m²88%1024,60,0 km/h (0 Bft) NO4,8 km/h (1 Bft) NO (00:00)
Opfenbach-Göritz561 m05:51-4,8-5,2 (05:22)-2,8 (00:00)0,0 l/m²76%1020,31,4 km/h (1 Bft) N-NO6,5 km/h (2 Bft) O-NO (00:18)
Ostrach619 m05:50-3,4-3,8 (04:15)-0,6 (00:00)0,0 l/m²88%1021,34,8 km/h (1 Bft) N-NW8,0 km/h (2 Bft) N-NW (04:40)
Ravensburg, Goethestraße428 m05:50-1,5-1,5 (05:50)1,3 (00:00)0,0 l/m²79%1021,914,5 km/h (3 Bft) NO14,5 km/h (3 Bft) O-NO (02:45)
Ravensburg-Wernsreute511 m05:50-2,8-2,9 (06:15)0,0 (15:50)0,0 l/m²81%1024,619,3 km/h (3 Bft) N35,4 km/h (5 Bft) N-NO (11:45)
Reichenbach an der Fils343 m05:50-1,8-1,8 (05:45)1,0 (00:00)0,0 l/m²76%1025,51,6 km/h (1 Bft) SO12,9 km/h (3 Bft) O-SO (05:10)
Riedlingen530 m05:50-2,8-2,8 (05:35)-1,0 (00:00)0,0 l/m²80%1023,10,0 km/h (0 Bft) NO0,0 km/h (0 Bft) N (00:00)
Rißtissen489 m05:50-2,9-2,9 (05:50)-0,2 (00:00)0,0 l/m²85%1020,80,0 km/h (0 Bft) O-NO8,0 km/h (2 Bft) O-NO (03:30)
Rottweil-Hausen681 m05:48-4,1-4,3 (04:46)-1,9 (00:00)0,0 l/m²83%1023,66,5 km/h (2 Bft) N-NW6,5 km/h (2 Bft) N (02:14)
Schemmerhofen520 m05:502,72,7 (00:00)2,7 (00:00)0,0 l/m²55%1022,00,0 km/h (0 Bft) NO0,0 km/h (0 Bft) NO (00:00)
Silbertal im Montafon (AT)884 m05:50-4,1-4,1 (05:06)-1,6 (00:01)0,0 l/m²85%1026,10,0 km/h (0 Bft) O-NO0,0 km/h (0 Bft) O-NO (00:00)
Tettnang466 m05:49-1,1-1,1 (05:26)1,0 (00:00)0,0 l/m²71%1021,913,0 km/h (3 Bft) O-SO16,2 km/h (3 Bft) O-SO (01:07)
Tuttlingen648 m05:41-4,3-4,3 (05:41)-2,1 (00:01)0,0 l/m²75%1023,60,0 km/h (0 Bft) N-NO5,2 km/h (1 Bft) W-SW (03:26)
Tuttlingen, Möhringer-Vorstadt711 m05:50-4,1-4,2 (07:10)-2,4 (16:05)0,0 l/m²81%1022,66,4 km/h (2 Bft) O-NO25,7 km/h (4 Bft) N-NW (12:35)
Ummendorf547 m05:50-3,9-3,9 (05:50)-0,7 (00:10)0,0 l/m²67%1024,00,0 km/h (0 Bft) O-NO16,1 km/h (3 Bft) O (01:05)
Ummendorf-Fischbach558 m05:50-5,1-5,1 (05:50)-1,9 (01:25)0,0 l/m²70%1023,80,0 km/h (0 Bft) S-SO4,8 km/h (1 Bft) O (04:20)
Waldburg707 m05:50-2,9-2,9 (05:45)-0,8 (00:00)0,0 l/m²79%1021,612,9 km/h (3 Bft) N19,3 km/h (3 Bft) N (02:35)
Waltenhofen im Allgäu720 m05:45-7,1-7,2 (05:30)-2,2 (01:05)0,0 l/m²90%1022,80,0 km/h (0 Bft) N-NW17,7 km/h (3 Bft) N-NW (11:50)
Wangen, Südring548 m05:50-3,8-3,8 (05:43)-0,3 (00:00)0,0 l/m²83%1021,84,7 km/h (1 Bft) NO13,0 km/h (3 Bft) NO (01:25)
Warthausen-Birkenhard581 m05:49-4,2-4,3 (05:35)-1,2 (00:00)0,0 l/m²86%1023,510,1 km/h (2 Bft) N11,9 km/h (3 Bft) N-NO (02:49)
Winterlingen785 m05:45-5,4-5,5 (05:30)-2,8 (01:00)0,0 l/m²84%1022,71,8 km/h (1 Bft) NO3,6 km/h (1 Bft) NO (00:55)

Werbung
niederschlagsdatenbank | info | login - erfassung

Sollten Sie Interesse haben, an der Niederschlagsdatenbank teilzunehmen, finden Sie > hier < weitere Informationen.

Niederschlagsdaten der Station Wurmlingen - An der Steig 30

Alexander Völlnagel

Niederschlagsstation aufgenommen ins Stationsnetz der Wetterwarte Süd am 21.08.2016
Monat: .
Anmerkung:0,0 = nicht messbarer Niederschlag
 -  = kein Niederschlag

Stationsdaten

Höhe

684 m

Lage

Auf Google Maps ansehen

Beschreibung

Die Wetterstation liegt am äußeren Stadtrand von Wurmlingen am Fuße des Rußbergs unweit in der Nähe der Kapfhöhe am Waldrand. Von dort aus hat man einen kompletten Überblick über Wurmlingen. Installiert sind eine Hauptwetterstation, zusätzlich ein Windsensor und ein Regensensor und 3 Außentemperatursensoren und 3 Feuchtigkeitsaußensensoren an verschiedenen Messpunkten.
< September 2016November 2016 >

Oktober 2016

TagNiederschlagBemerkung
01.-
Nachts leicht bewölkter, teils bedeckter Himmel und Nebel bei Temperaturen um 10 C° und Windstille Richtung Nordwest. Morgens und im Tagesverlauf leicht bewölkter bis wolkiger Himmel, ab mittags vermehrt Regenschauer bei Temperaturen um 21 C° und schwacher bis mäßiger Wind aus Südwest/Nordost
Regen Bodennebel Nebelnässe
02.0,7
Nachts stark bewölkter Himmel bei Temperaturen um 10 C° und schwacher bis mäßiger Wind aus westlichen/östlichen Richtungen. Morgens Regenschauer und im Tagesverlauf sonnig bis leicht bewölkter, teils wolkiger Himmel bei Temperaturen um 17 C° und schwacher bis mäßiger, teils frischer Wind au
Regen
03.-
Nachts wolkenloser und sternenklarer bis leicht bewölkter Himmel bei Temperaturen um 6 C° und Windstille aus Nordost/Nordwest. Morgens und im Tagesverlauf wolkiger bis bedeckter Himmel bei Temperaturen um 15 C° und leichter bis schwacher Wind aus Nordost. Abends und nachts leicht bewölkter bis w
Regen Bodennebel Nebelnässe
04.0,7
Nachts leicht bewölkter bis wolkiger Himmel und Nebel, kurze Regenschauer bei Temperaturen um 5 C° und leichter Wind bis Windstille aus östlichen Richtungen. Morgens und im Tagesverlauf leicht bewölkter bis wolkiger, teils bedeckter Himmel bei Temperaturen um 15 C° und leichter bis schwacher, t
Regen Bodennebel Nebelnässe
05.-
Nachts wolkiger bis bedeckter Himmel und Nebel bei Temperaturen um 5 C° und leichter Wind bis Windstille Richtung Nordwest/Nordost. Morgens und im Tagesverlauf sonnig bis leicht bewölkter Himmel bei Temperaturen um 12 C° und schwacher bis mäßiger, teils frischer Wind aus Nordost. Abends und nac
Bodennebel Nebelnässe
06.-
Nachts wolkenloser und sternenklarer Himmel und Nebel bei Temperaturen um 2 C° und leichter Wind bis Windstille Richtung Nordwest/Nordost. Morgens Nebel und im Tagesverlauf sonnig bis leicht bewölkter Himmel bei Temperaturen um 12 C° und schwacher bis mäßiger Wind aus Nordost/Nordwest. Abends u
Bodennebel Nebelnässe
07.-
Nachts bedeckter Himmel und Nebel bei Temperaturen um 8 C° und leichter Wind bis Windstille Richtung Nordost/Nordwest. Morgens Nebel und im Tagesverlauf wolkiger bis bedeckter Himmel bei Temperaturen um 12 C° und leichter bis schwacher Wind aus westlichen/östlichen Richtungen. Abends und nachts w
Bodennebel Nebelnässe
08.-
Nachts wolkiger bis bedeckter Himmel und Nebel bei Temperaturen um 7 C° und leichter Wind bis Windstille Richtung Nordost/Nordwest. Morgens und im Tagesverlauf wolkiger bis bedeckter Himmel bei Temperaturen um 12 C° und leichter bis schwacher, teils mäßiger Wind aus östlichen Richtungen. Abends
Bodennebel Nebelnässe
09.2,2
Nachts wolkiger bis bedeckter Himmel und Nebel bei Temperaturen um 5 C° und leichter Wind bis Windstille aus östlichen Richtungen. Morgens und im Tagesverlauf wolkiger bis bedeckter Himmel, ab nachmittags kurze und vermehrt kräftige Regenschauer bei Höchsttemperaturen um 11 C° und leichter bis
Regen Bodennebel Nebelnässe
10.-
Nachts leicht bewölkter Himmel und Nebel bei Temperaturen um 3 C° und leichter Wind bis Windstille Richtung Nordost/Nordwest. Morgens und im Tagesverlauf wolkiger bis bedeckter Himmel und kurze Regenschauer bei Temperaturen um 10 C° und schwacher bis mäßiger Wind aus westlichen/östlichen Richt
Regen Bodennebel Nebelnässe
11.4,2
Nachts wolkiger bis bedeckter Himmel und Nebel bei Temperaturen um 5 C° und leichter Wind bis Windstille Richtung Nordost/Nordwest. Morgens und im Tagesverlauf leicht bewölkter bis wolkiger Himmel, Regenschauer, kleiner Hagel und Graupelschauer bei Temperaturen um 12 C° und schwacher bis mäßige
Regen Graupel Hagel Bodennebel Nebelnässe
12.-
Nachts leicht bewölkter bis wolkiger Himmel und Nebel bei Temperaturen um 2 C° und leichter Wind bis Windstille Richtung Nordost/Nordwest. Morgens Nebel und im Tagesverlauf leicht bewölkter bis wolkiger Himmel bei Temperaturen um 10 C° und leichter bis schwacher Wind aus westlichen/östlichen Ri
Bodennebel Nebelnässe
13.-
Nachts wolkenloser und sternenklarer, in den frühen Morgenstunden leicht bewölkter bis wolkiger Himmel und Nebel bei Temperaturen um 1 C° und schwacher bis mäßiger Wind aus Nordost/Nordwest. Morgens und im Tagesverlauf wolkiger bis bedeckter Himmel mit zeitweiligen Sonnenlücken bei Temperature
Bodennebel Nebelnässe
14.-
Nachts wolkenloser und sternenklarer bis leicht bewölkter, teils wolkiger Himmel und Nebel bei Temperaturen um 4 C° und leichter Wind bis Windstille aus westlichen/östlichen Richtungen. Morgens und im Tagesverlauf
Bodennebel Nebelnässe
15.-
16.-
17.-
18.-
19.-
20.-
21.-
22.-
23.-
24.-
25.-
26.-
27.-
28.-
29.-
30.-
31.-
Gesamt:7,8 
Die Spalten "Tag" und "Niederschlag" lassen sich durch Klicken auf den Spaltenkopf sortieren.
Die Angaben sind in l/m².

< September 2016November 2016 >


Monats- und Jahresniederschlag


Wetterbeobachtungen Legende:

  • Regen
  • Nieselregen
  • Schneeregen
  • Schnee
  • Graupel
  • Eiskörner
  • Hagel
  • Bodennebel
  • Gewitter
  • Nebelnässe
  • Schneegriesel

Grafische Darstellung der Niederschläge der Station Wurmlingen Oktober 2016

 
wetterstationen
wetterstationen
- derzeit 83 Stationen
niederschlagsdatenbank
wetterstationen
- kartographische Darstellung
niederschlagsdatenbank
niederschlagsstationen
- derzeit 112 Stationen
niederschlagsdatenbank
niederschlagsstationen
- kartographische Darstellung
 
  treffpunkt & service
--- Anzeigen --------------------------------
zugriffe:
insgesamt: 46.623.178
aktueller monat: 367
heute: 367
momentan online: 24
 
 
monatshöchstwert: 653.625
vorheriger monat: 364.213
gestern: 13.565
tageshöchstwert: 57.073
 
wetterwarte süd
 
konradstraße 3
info@wetterwarte-sued.com
roland roth
 
88427 bad schussenried